sensor_id;sensor_type;location;lat;lon;timestamp;P1;durP1;ratioP1;P2;durP2;ratioP2
74670;SDS011;63196;39.564;2.628;2022-11-20T00:02:08;6.60;;;2.40;;
74670;SDS011;63196;39.564;2.628;2022-11-20T00:04:33;5.50;;;2.00;;
74670;SDS011;63196;39.564;2.628;2022-11-20T00:06:58;4.90;;;2.20;;
74670;SDS011;63196;39.564;2.628;2022-11-20T00:09:24;5.30;;;1.60;;
74670;SDS011;63196;39.564;2.628;2022-11-20T00:11:49;4.90;;;2.20;;
74670;SDS011;63196;39.564;2.628;2022-11-20T00:14:15;7.30;;;2.10;;
74670;SDS011;63196;39.564;2.628;2022-11-20T00:16:40;5.70;;;1.70;;
74670;SDS011;63196;39.564;2.628;2022-11-20T00:19:05;5.80;;;2.00;;
74670;SDS011;63196;39.564;2.628;2022-11-20T00:21:31;3.00;;;1.30;;
74670;SDS011;63196;39.564;2.628;2022-11-20T00:23:56;5.60;;;2.50;;
74670;SDS011;63196;39.564;2.628;2022-11-20T00:26:23;6.90;;;2.00;;
74670;SDS011;63196;39.564;2.628;2022-11-20T00:28:52;3.90;;;1.80;;
74670;SDS011;63196;39.564;2.628;2022-11-20T00:31:18;5.80;;;2.90;;
74670;SDS011;63196;39.564;2.628;2022-11-20T00:33:44;9.00;;;2.90;;
74670;SDS011;63196;39.564;2.628;2022-11-20T00:36:19;5.00;;;2.50;;
74670;SDS011;63196;39.564;2.628;2022-11-20T00:38:52;5.90;;;2.10;;
74670;SDS011;63196;39.564;2.628;2022-11-20T00:41:17;3.90;;;1.80;;
74670;SDS011;63196;39.564;2.628;2022-11-20T00:43:43;6.00;;;2.40;;
74670;SDS011;63196;39.564;2.628;2022-11-20T00:46:09;4.80;;;2.10;;
74670;SDS011;63196;39.564;2.628;2022-11-20T00:48:35;4.80;;;1.70;;
74670;SDS011;63196;39.564;2.628;2022-11-20T00:51:00;4.80;;;2.50;;
74670;SDS011;63196;39.564;2.628;2022-11-20T00:53:26;8.50;;;2.20;;
74670;SDS011;63196;39.564;2.628;2022-11-20T00:55:59;4.20;;;2.00;;
74670;SDS011;63196;39.564;2.628;2022-11-20T00:58:27;7.60;;;1.70;;
74670;SDS011;63196;39.564;2.628;2022-11-20T01:00:53;5.10;;;2.00;;
74670;SDS011;63196;39.564;2.628;2022-11-20T01:03:24;3.70;;;1.70;;
74670;SDS011;63196;39.564;2.628;2022-11-20T01:05:49;3.40;;;1.30;;
74670;SDS011;63196;39.564;2.628;2022-11-20T01:08:15;4.90;;;1.40;;
74670;SDS011;63196;39.564;2.628;2022-11-20T01:10:40;3.20;;;1.20;;
74670;SDS011;63196;39.564;2.628;2022-11-20T01:13:05;5.90;;;1.80;;
74670;SDS011;63196;39.564;2.628;2022-11-20T01:15:49;4.70;;;1.50;;
74670;SDS011;63196;39.564;2.628;2022-11-20T01:18:15;5.60;;;1.40;;
74670;SDS011;63196;39.564;2.628;2022-11-20T01:20:40;5.50;;;1.50;;
74670;SDS011;63196;39.564;2.628;2022-11-20T01:23:06;5.60;;;1.60;;
74670;SDS011;63196;39.564;2.628;2022-11-20T01:25:31;4.50;;;1.30;;
74670;SDS011;63196;39.564;2.628;2022-11-20T01:27:56;3.60;;;1.40;;
74670;SDS011;63196;39.564;2.628;2022-11-20T01:30:22;4.40;;;1.80;;
74670;SDS011;63196;39.564;2.628;2022-11-20T01:32:47;4.50;;;1.40;;
74670;SDS011;63196;39.564;2.628;2022-11-20T01:35:13;5.50;;;1.70;;
74670;SDS011;63196;39.564;2.628;2022-11-20T01:37:38;6.30;;;2.40;;
74670;SDS011;63196;39.564;2.628;2022-11-20T01:40:04;6.80;;;3.20;;
74670;SDS011;63196;39.564;2.628;2022-11-20T01:42:29;4.90;;;2.30;;
74670;SDS011;63196;39.564;2.628;2022-11-20T01:47:58;4.70;;;1.60;;
74670;SDS011;63196;39.564;2.628;2022-11-20T01:50:26;4.10;;;1.30;;
74670;SDS011;63196;39.564;2.628;2022-11-20T01:52:59;4.30;;;1.70;;
74670;SDS011;63196;39.564;2.628;2022-11-20T01:55:28;5.20;;;1.50;;
74670;SDS011;63196;39.564;2.628;2022-11-20T01:57:55;5.20;;;1.20;;
74670;SDS011;63196;39.564;2.628;2022-11-20T02:00:20;4.30;;;1.30;;
74670;SDS011;63196;39.564;2.628;2022-11-20T02:02:48;4.20;;;1.10;;
74670;SDS011;63196;39.564;2.628;2022-11-20T02:07:40;5.10;;;1.30;;
74670;SDS011;63196;39.564;2.628;2022-11-20T02:10:06;3.10;;;1.30;;
74670;SDS011;63196;39.564;2.628;2022-11-20T02:12:31;4.50;;;1.50;;
74670;SDS011;63196;39.564;2.628;2022-11-20T02:15:15;5.20;;;1.70;;
74670;SDS011;63196;39.564;2.628;2022-11-20T02:17:41;4.20;;;1.50;;
74670;SDS011;63196;39.564;2.628;2022-11-20T02:20:07;4.40;;;1.00;;
74670;SDS011;63196;39.564;2.628;2022-11-20T02:22:37;4.40;;;1.40;;
74670;SDS011;63196;39.564;2.628;2022-11-20T02:25:05;1.90;;;0.80;;
74670;SDS011;63196;39.564;2.628;2022-11-20T02:27:32;4.40;;;1.20;;
74670;SDS011;63196;39.564;2.628;2022-11-20T02:29:58;2.50;;;0.80;;
74670;SDS011;63196;39.564;2.628;2022-11-20T02:32:26;3.60;;;1.00;;
74670;SDS011;63196;39.564;2.628;2022-11-20T02:34:52;3.70;;;1.10;;
74670;SDS011;63196;39.564;2.628;2022-11-20T02:37:18;3.50;;;0.80;;
74670;SDS011;63196;39.564;2.628;2022-11-20T02:39:45;3.00;;;1.00;;
74670;SDS011;63196;39.564;2.628;2022-11-20T02:42:11;5.50;;;1.20;;
74670;SDS011;63196;39.564;2.628;2022-11-20T02:44:36;4.90;;;1.20;;
74670;SDS011;63196;39.564;2.628;2022-11-20T02:47:02;3.30;;;1.30;;
74670;SDS011;63196;39.564;2.628;2022-11-20T02:49:27;4.50;;;1.10;;
74670;SDS011;63196;39.564;2.628;2022-11-20T02:51:53;4.10;;;1.40;;
74670;SDS011;63196;39.564;2.628;2022-11-20T02:54:18;4.80;;;1.50;;
74670;SDS011;63196;39.564;2.628;2022-11-20T02:56:43;4.20;;;1.10;;
74670;SDS011;63196;39.564;2.628;2022-11-20T02:59:09;5.60;;;1.20;;
74670;SDS011;63196;39.564;2.628;2022-11-20T03:01:35;4.20;;;1.00;;
74670;SDS011;63196;39.564;2.628;2022-11-20T03:04:00;4.20;;;1.00;;
74670;SDS011;63196;39.564;2.628;2022-11-20T03:06:29;3.60;;;1.00;;
74670;SDS011;63196;39.564;2.628;2022-11-20T03:11:19;3.20;;;0.90;;
74670;SDS011;63196;39.564;2.628;2022-11-20T03:13:45;3.60;;;1.40;;
74670;SDS011;63196;39.564;2.628;2022-11-20T03:16:11;5.40;;;1.30;;
74670;SDS011;63196;39.564;2.628;2022-11-20T03:18:38;5.30;;;1.20;;
74670;SDS011;63196;39.564;2.628;2022-11-20T03:21:03;2.20;;;0.80;;
74670;SDS011;63196;39.564;2.628;2022-11-20T03:23:30;3.00;;;1.00;;
74670;SDS011;63196;39.564;2.628;2022-11-20T03:25:56;2.80;;;0.90;;
74670;SDS011;63196;39.564;2.628;2022-11-20T03:28:21;4.10;;;1.00;;
74670;SDS011;63196;39.564;2.628;2022-11-20T03:30:47;4.00;;;1.00;;
74670;SDS011;63196;39.564;2.628;2022-11-20T03:33:12;5.80;;;1.20;;
74670;SDS011;63196;39.564;2.628;2022-11-20T03:35:39;4.20;;;1.10;;
74670;SDS011;63196;39.564;2.628;2022-11-20T03:38:04;2.90;;;1.00;;
74670;SDS011;63196;39.564;2.628;2022-11-20T03:40:30;4.80;;;0.90;;
74670;SDS011;63196;39.564;2.628;2022-11-20T03:42:56;3.00;;;1.00;;
74670;SDS011;63196;39.564;2.628;2022-11-20T03:45:22;3.60;;;1.10;;
74670;SDS011;63196;39.564;2.628;2022-11-20T03:47:47;2.90;;;0.90;;
74670;SDS011;63196;39.564;2.628;2022-11-20T03:50:13;2.90;;;0.80;;
74670;SDS011;63196;39.564;2.628;2022-11-20T03:52:39;4.10;;;0.80;;
74670;SDS011;63196;39.564;2.628;2022-11-20T03:55:05;4.10;;;1.00;;
74670;SDS011;63196;39.564;2.628;2022-11-20T03:57:30;2.40;;;0.80;;
74670;SDS011;63196;39.564;2.628;2022-11-20T03:59:56;3.70;;;1.10;;
74670;SDS011;63196;39.564;2.628;2022-11-20T04:02:21;2.10;;;0.70;;
74670;SDS011;63196;39.564;2.628;2022-11-20T04:04:46;3.30;;;0.80;;
74670;SDS011;63196;39.564;2.628;2022-11-20T04:07:12;3.40;;;1.00;;
74670;SDS011;63196;39.564;2.628;2022-11-20T04:09:37;2.50;;;0.80;;
74670;SDS011;63196;39.564;2.628;2022-11-20T04:12:03;2.90;;;0.90;;
74670;SDS011;63196;39.564;2.628;2022-11-20T04:14:28;4.90;;;1.00;;
74670;SDS011;63196;39.564;2.628;2022-11-20T04:16:54;3.10;;;0.60;;
74670;SDS011;63196;39.564;2.628;2022-11-20T04:19:19;6.30;;;0.90;;
74670;SDS011;63196;39.564;2.628;2022-11-20T04:21:44;3.20;;;1.10;;
74670;SDS011;63196;39.564;2.628;2022-11-20T04:24:10;3.20;;;1.10;;
74670;SDS011;63196;39.564;2.628;2022-11-20T04:26:36;2.90;;;1.10;;
74670;SDS011;63196;39.564;2.628;2022-11-20T04:29:01;4.40;;;1.40;;
74670;SDS011;63196;39.564;2.628;2022-11-20T04:31:28;5.70;;;1.20;;
74670;SDS011;63196;39.564;2.628;2022-11-20T04:33:54;4.50;;;1.10;;
74670;SDS011;63196;39.564;2.628;2022-11-20T04:36:20;3.00;;;0.80;;
74670;SDS011;63196;39.564;2.628;2022-11-20T04:38:46;4.10;;;1.00;;
74670;SDS011;63196;39.564;2.628;2022-11-20T04:41:20;3.30;;;1.10;;
74670;SDS011;63196;39.564;2.628;2022-11-20T04:43:46;2.90;;;1.00;;
74670;SDS011;63196;39.564;2.628;2022-11-20T04:46:12;3.60;;;1.10;;
74670;SDS011;63196;39.564;2.628;2022-11-20T04:48:38;5.00;;;1.00;;
74670;SDS011;63196;39.564;2.628;2022-11-20T04:51:03;4.50;;;0.90;;
74670;SDS011;63196;39.564;2.628;2022-11-20T04:53:29;4.40;;;1.20;;
74670;SDS011;63196;39.564;2.628;2022-11-20T04:55:59;4.00;;;0.90;;
74670;SDS011;63196;39.564;2.628;2022-11-20T04:58:24;2.80;;;0.80;;
74670;SDS011;63196;39.564;2.628;2022-11-20T05:00:49;6.70;;;1.10;;
74670;SDS011;63196;39.564;2.628;2022-11-20T05:03:16;4.00;;;0.90;;
74670;SDS011;63196;39.564;2.628;2022-11-20T05:05:42;3.30;;;1.10;;
74670;SDS011;63196;39.564;2.628;2022-11-20T05:08:07;2.10;;;0.90;;
74670;SDS011;63196;39.564;2.628;2022-11-20T05:10:32;2.00;;;0.60;;
74670;SDS011;63196;39.564;2.628;2022-11-20T05:12:58;2.60;;;0.80;;
74670;SDS011;63196;39.564;2.628;2022-11-20T05:15:23;5.10;;;0.80;;
74670;SDS011;63196;39.564;2.628;2022-11-20T05:17:49;2.10;;;0.70;;
74670;SDS011;63196;39.564;2.628;2022-11-20T05:20:15;3.30;;;0.80;;
74670;SDS011;63196;39.564;2.628;2022-11-20T05:22:41;2.90;;;0.80;;
74670;SDS011;63196;39.564;2.628;2022-11-20T05:25:06;2.60;;;0.90;;
74670;SDS011;63196;39.564;2.628;2022-11-20T05:27:32;3.60;;;0.80;;
74670;SDS011;63196;39.564;2.628;2022-11-20T05:29:57;3.60;;;0.70;;
74670;SDS011;63196;39.564;2.628;2022-11-20T05:32:22;2.80;;;0.80;;
74670;SDS011;63196;39.564;2.628;2022-11-20T05:34:51;1.90;;;0.60;;
74670;SDS011;63196;39.564;2.628;2022-11-20T05:37:16;5.80;;;1.20;;
74670;SDS011;63196;39.564;2.628;2022-11-20T05:39:41;2.40;;;0.80;;
74670;SDS011;63196;39.564;2.628;2022-11-20T05:42:07;3.90;;;0.80;;
74670;SDS011;63196;39.564;2.628;2022-11-20T05:44:51;2.30;;;1.00;;
74670;SDS011;63196;39.564;2.628;2022-11-20T05:47:16;3.60;;;0.70;;
74670;SDS011;63196;39.564;2.628;2022-11-20T05:49:42;2.40;;;0.90;;
74670;SDS011;63196;39.564;2.628;2022-11-20T05:52:07;5.70;;;0.90;;
74670;SDS011;63196;39.564;2.628;2022-11-20T05:54:32;4.70;;;1.70;;
74670;SDS011;63196;39.564;2.628;2022-11-20T05:56:58;1.70;;;0.60;;
74670;SDS011;63196;39.564;2.628;2022-11-20T05:59:23;3.70;;;0.70;;
74670;SDS011;63196;39.564;2.628;2022-11-20T06:01:49;3.70;;;0.80;;
74670;SDS011;63196;39.564;2.628;2022-11-20T06:04:14;3.40;;;1.10;;
74670;SDS011;63196;39.564;2.628;2022-11-20T06:06:39;3.20;;;0.70;;
74670;SDS011;63196;39.564;2.628;2022-11-20T06:09:05;4.10;;;0.80;;
74670;SDS011;63196;39.564;2.628;2022-11-20T06:11:30;4.90;;;0.70;;
74670;SDS011;63196;39.564;2.628;2022-11-20T06:13:56;1.80;;;0.40;;
74670;SDS011;63196;39.564;2.628;2022-11-20T06:16:21;2.90;;;0.70;;
74670;SDS011;63196;39.564;2.628;2022-11-20T06:18:47;3.50;;;0.90;;
74670;SDS011;63196;39.564;2.628;2022-11-20T06:21:13;3.90;;;0.80;;
74670;SDS011;63196;39.564;2.628;2022-11-20T06:23:39;2.10;;;0.40;;
74670;SDS011;63196;39.564;2.628;2022-11-20T06:26:06;1.20;;;0.30;;
74670;SDS011;63196;39.564;2.628;2022-11-20T06:28:32;1.80;;;0.60;;
74670;SDS011;63196;39.564;2.628;2022-11-20T06:30:58;3.10;;;0.70;;
74670;SDS011;63196;39.564;2.628;2022-11-20T06:33:27;3.30;;;0.80;;
74670;SDS011;63196;39.564;2.628;2022-11-20T06:35:55;2.80;;;0.90;;
74670;SDS011;63196;39.564;2.628;2022-11-20T06:40:46;2.90;;;0.80;;
74670;SDS011;63196;39.564;2.628;2022-11-20T06:43:12;3.60;;;0.80;;
74670;SDS011;63196;39.564;2.628;2022-11-20T06:45:37;4.20;;;1.20;;
74670;SDS011;63196;39.564;2.628;2022-11-20T06:48:03;3.50;;;0.70;;
74670;SDS011;63196;39.564;2.628;2022-11-20T06:50:28;4.40;;;1.30;;
74670;SDS011;63196;39.564;2.628;2022-11-20T06:52:54;4.60;;;0.80;;
74670;SDS011;63196;39.564;2.628;2022-11-20T06:55:19;3.80;;;0.90;;
74670;SDS011;63196;39.564;2.628;2022-11-20T06:57:45;3.60;;;0.80;;
74670;SDS011;63196;39.564;2.628;2022-11-20T07:00:10;3.50;;;0.80;;
74670;SDS011;63196;39.564;2.628;2022-11-20T07:02:36;5.70;;;0.80;;
74670;SDS011;63196;39.564;2.628;2022-11-20T07:05:01;2.70;;;0.50;;
74670;SDS011;63196;39.564;2.628;2022-11-20T07:07:27;1.70;;;0.40;;
74670;SDS011;63196;39.564;2.628;2022-11-20T07:09:52;3.70;;;0.80;;
74670;SDS011;63196;39.564;2.628;2022-11-20T07:12:17;1.70;;;0.60;;
74670;SDS011;63196;39.564;2.628;2022-11-20T07:14:43;3.20;;;0.60;;
74670;SDS011;63196;39.564;2.628;2022-11-20T07:17:08;3.20;;;0.80;;
74670;SDS011;63196;39.564;2.628;2022-11-20T07:19:33;5.10;;;0.60;;
74670;SDS011;63196;39.564;2.628;2022-11-20T07:21:59;1.90;;;0.40;;
74670;SDS011;63196;39.564;2.628;2022-11-20T07:24:24;2.30;;;0.80;;
74670;SDS011;63196;39.564;2.628;2022-11-20T07:26:49;4.80;;;0.70;;
74670;SDS011;63196;39.564;2.628;2022-11-20T07:29:15;4.00;;;0.70;;
74670;SDS011;63196;39.564;2.628;2022-11-20T07:31:41;4.30;;;0.80;;
74670;SDS011;63196;39.564;2.628;2022-11-20T07:34:07;2.50;;;0.60;;
74670;SDS011;63196;39.564;2.628;2022-11-20T07:36:32;2.10;;;0.60;;
74670;SDS011;63196;39.564;2.628;2022-11-20T07:38:57;2.30;;;0.60;;
74670;SDS011;63196;39.564;2.628;2022-11-20T07:41:23;3.60;;;0.90;;
74670;SDS011;63196;39.564;2.628;2022-11-20T07:43:48;4.00;;;0.80;;
74670;SDS011;63196;39.564;2.628;2022-11-20T07:46:14;2.80;;;0.60;;
74670;SDS011;63196;39.564;2.628;2022-11-20T07:48:39;3.60;;;0.80;;
74670;SDS011;63196;39.564;2.628;2022-11-20T07:51:05;3.30;;;0.70;;
74670;SDS011;63196;39.564;2.628;2022-11-20T07:53:30;2.20;;;0.50;;
74670;SDS011;63196;39.564;2.628;2022-11-20T07:55:58;3.30;;;0.50;;
74670;SDS011;63196;39.564;2.628;2022-11-20T07:58:24;3.30;;;0.90;;
74670;SDS011;63196;39.564;2.628;2022-11-20T08:00:49;2.90;;;0.90;;
74670;SDS011;63196;39.564;2.628;2022-11-20T08:03:15;3.40;;;0.50;;
74670;SDS011;63196;39.564;2.628;2022-11-20T08:05:40;3.50;;;0.80;;
74670;SDS011;63196;39.564;2.628;2022-11-20T08:08:05;3.70;;;1.00;;
74670;SDS011;63196;39.564;2.628;2022-11-20T08:10:32;4.60;;;0.70;;
74670;SDS011;63196;39.564;2.628;2022-11-20T08:12:58;3.00;;;0.60;;
74670;SDS011;63196;39.564;2.628;2022-11-20T08:15:46;2.50;;;0.40;;
74670;SDS011;63196;39.564;2.628;2022-11-20T08:18:12;3.70;;;0.70;;
74670;SDS011;63196;39.564;2.628;2022-11-20T08:20:38;4.70;;;0.90;;
74670;SDS011;63196;39.564;2.628;2022-11-20T08:23:04;3.20;;;0.90;;
74670;SDS011;63196;39.564;2.628;2022-11-20T08:25:30;2.80;;;0.70;;
74670;SDS011;63196;39.564;2.628;2022-11-20T08:27:58;6.20;;;0.80;;
74670;SDS011;63196;39.564;2.628;2022-11-20T08:30:24;4.80;;;0.60;;
74670;SDS011;63196;39.564;2.628;2022-11-20T08:32:50;3.60;;;0.70;;
74670;SDS011;63196;39.564;2.628;2022-11-20T08:35:16;3.10;;;0.60;;
74670;SDS011;63196;39.564;2.628;2022-11-20T08:37:41;4.30;;;0.80;;
74670;SDS011;63196;39.564;2.628;2022-11-20T08:40:09;3.60;;;0.50;;
74670;SDS011;63196;39.564;2.628;2022-11-20T08:42:34;4.80;;;0.80;;
74670;SDS011;63196;39.564;2.628;2022-11-20T08:45:00;4.50;;;0.60;;
74670;SDS011;63196;39.564;2.628;2022-11-20T08:47:25;2.70;;;0.70;;
74670;SDS011;63196;39.564;2.628;2022-11-20T08:49:50;4.00;;;0.80;;
74670;SDS011;63196;39.564;2.628;2022-11-20T08:52:16;4.70;;;1.00;;
74670;SDS011;63196;39.564;2.628;2022-11-20T08:54:42;3.10;;;0.70;;
74670;SDS011;63196;39.564;2.628;2022-11-20T08:57:07;4.20;;;0.80;;
74670;SDS011;63196;39.564;2.628;2022-11-20T08:59:33;3.80;;;0.80;;
74670;SDS011;63196;39.564;2.628;2022-11-20T09:01:58;3.40;;;0.80;;
74670;SDS011;63196;39.564;2.628;2022-11-20T09:04:24;3.70;;;0.80;;
74670;SDS011;63196;39.564;2.628;2022-11-20T09:06:49;3.60;;;0.70;;
74670;SDS011;63196;39.564;2.628;2022-11-20T09:09:18;3.60;;;0.80;;
74670;SDS011;63196;39.564;2.628;2022-11-20T09:11:44;3.90;;;0.90;;
74670;SDS011;63196;39.564;2.628;2022-11-20T09:14:09;3.70;;;1.00;;
74670;SDS011;63196;39.564;2.628;2022-11-20T09:16:35;3.50;;;0.70;;
74670;SDS011;63196;39.564;2.628;2022-11-20T09:19:00;2.70;;;0.60;;
74670;SDS011;63196;39.564;2.628;2022-11-20T09:21:26;4.70;;;0.90;;
74670;SDS011;63196;39.564;2.628;2022-11-20T09:23:51;5.60;;;1.00;;
74670;SDS011;63196;39.564;2.628;2022-11-20T09:26:17;2.80;;;0.60;;
74670;SDS011;63196;39.564;2.628;2022-11-20T09:28:42;2.80;;;0.70;;
74670;SDS011;63196;39.564;2.628;2022-11-20T09:31:41;4.70;;;1.00;;
74670;SDS011;63196;39.564;2.628;2022-11-20T09:33:59;4.10;;;0.90;;
74670;SDS011;63196;39.564;2.628;2022-11-20T09:36:25;6.90;;;1.50;;
74670;SDS011;63196;39.564;2.628;2022-11-20T09:38:51;4.80;;;1.00;;
74670;SDS011;63196;39.564;2.628;2022-11-20T09:46:35;3.40;;;0.80;;
74670;SDS011;63196;39.564;2.628;2022-11-20T09:56:24;3.60;;;1.00;;
74670;SDS011;63196;39.564;2.628;2022-11-20T09:58:52;3.60;;;0.70;;
74670;SDS011;63196;39.564;2.628;2022-11-20T10:01:19;4.00;;;0.80;;
74670;SDS011;63196;39.564;2.628;2022-11-20T10:06:13;4.00;;;1.00;;
74670;SDS011;63196;39.564;2.628;2022-11-20T10:08:41;3.40;;;0.90;;
74670;SDS011;63196;39.564;2.628;2022-11-20T10:11:24;3.50;;;0.70;;
74670;SDS011;63196;39.564;2.628;2022-11-20T10:14:04;2.70;;;0.50;;
74670;SDS011;63196;39.564;2.628;2022-11-20T10:16:36;2.90;;;0.80;;
74670;SDS011;63196;39.564;2.628;2022-11-20T10:29:26;3.80;;;1.20;;
74670;SDS011;63196;39.564;2.628;2022-11-20T10:31:56;6.10;;;1.20;;
74670;SDS011;63196;39.564;2.628;2022-11-20T10:37:00;4.40;;;0.80;;
74670;SDS011;63196;39.564;2.628;2022-11-20T10:39:32;4.40;;;1.10;;
74670;SDS011;63196;39.564;2.628;2022-11-20T10:41:59;4.50;;;0.90;;
74670;SDS011;63196;39.564;2.628;2022-11-20T10:44:28;4.00;;;1.20;;
74670;SDS011;63196;39.564;2.628;2022-11-20T10:47:17;3.90;;;1.00;;
74670;SDS011;63196;39.564;2.628;2022-11-20T10:49:44;3.10;;;0.80;;
74670;SDS011;63196;39.564;2.628;2022-11-20T10:54:39;4.30;;;0.80;;
74670;SDS011;63196;39.564;2.628;2022-11-20T10:57:17;4.50;;;1.50;;
74670;SDS011;63196;39.564;2.628;2022-11-20T11:02:22;3.70;;;1.10;;
74670;SDS011;63196;39.564;2.628;2022-11-20T11:04:52;3.70;;;1.10;;
74670;SDS011;63196;39.564;2.628;2022-11-20T11:07:27;3.50;;;1.10;;
74670;SDS011;63196;39.564;2.628;2022-11-20T11:09:55;2.80;;;0.80;;
74670;SDS011;63196;39.564;2.628;2022-11-20T11:12:22;2.90;;;0.80;;
74670;SDS011;63196;39.564;2.628;2022-11-20T11:19:45;3.00;;;0.70;;
74670;SDS011;63196;39.564;2.628;2022-11-20T11:22:10;5.10;;;1.20;;
74670;SDS011;63196;39.564;2.628;2022-11-20T11:24:43;3.40;;;0.80;;
74670;SDS011;63196;39.564;2.628;2022-11-20T11:27:16;3.80;;;0.90;;
74670;SDS011;63196;39.564;2.628;2022-11-20T11:29:42;2.60;;;0.50;;
74670;SDS011;63196;39.564;2.628;2022-11-20T11:32:11;2.40;;;0.70;;
74670;SDS011;63196;39.564;2.628;2022-11-20T11:34:36;3.40;;;1.10;;
74670;SDS011;63196;39.564;2.628;2022-11-20T11:37:02;3.70;;;0.80;;
74670;SDS011;63196;39.564;2.628;2022-11-20T11:39:31;2.60;;;0.70;;
74670;SDS011;63196;39.564;2.628;2022-11-20T11:41:58;4.30;;;0.70;;
74670;SDS011;63196;39.564;2.628;2022-11-20T11:47:11;2.20;;;0.60;;
74670;SDS011;63196;39.564;2.628;2022-11-20T11:49:43;3.20;;;1.00;;
74670;SDS011;63196;39.564;2.628;2022-11-20T11:52:18;3.90;;;0.80;;
74670;SDS011;63196;39.564;2.628;2022-11-20T11:54:52;3.30;;;0.60;;
74670;SDS011;63196;39.564;2.628;2022-11-20T12:02:27;2.00;;;0.60;;
74670;SDS011;63196;39.564;2.628;2022-11-20T12:04:57;2.90;;;0.80;;
74670;SDS011;63196;39.564;2.628;2022-11-20T12:07:37;2.60;;;0.50;;
74670;SDS011;63196;39.564;2.628;2022-11-20T12:10:04;3.20;;;0.50;;
74670;SDS011;63196;39.564;2.628;2022-11-20T12:12:41;2.60;;;0.60;;
74670;SDS011;63196;39.564;2.628;2022-11-20T12:15:11;2.70;;;0.70;;
74670;SDS011;63196;39.564;2.628;2022-11-20T12:17:38;2.20;;;0.50;;
74670;SDS011;63196;39.564;2.628;2022-11-20T12:20:05;2.00;;;0.50;;
74670;SDS011;63196;39.564;2.628;2022-11-20T12:22:40;2.20;;;0.50;;
74670;SDS011;63196;39.564;2.628;2022-11-20T12:25:16;1.80;;;0.50;;
74670;SDS011;63196;39.564;2.628;2022-11-20T12:30:24;2.90;;;0.70;;
74670;SDS011;63196;39.564;2.628;2022-11-20T12:59:33;3.60;;;0.80;;
74670;SDS011;63196;39.564;2.628;2022-11-20T13:06:39;2.10;;;0.50;;
74670;SDS011;63196;39.564;2.628;2022-11-20T13:09:08;4.20;;;1.80;;
74670;SDS011;63196;39.564;2.628;2022-11-20T13:14:10;2.90;;;0.90;;
74670;SDS011;63196;39.564;2.628;2022-11-20T13:19:03;4.40;;;0.90;;
74670;SDS011;63196;39.564;2.628;2022-11-20T13:21:36;3.80;;;1.00;;
74670;SDS011;63196;39.564;2.628;2022-11-20T13:24:06;2.50;;;0.70;;
74670;SDS011;63196;39.564;2.628;2022-11-20T13:26:31;2.40;;;0.70;;
74670;SDS011;63196;39.564;2.628;2022-11-20T13:29:08;2.00;;;0.50;;
74670;SDS011;63196;39.564;2.628;2022-11-20T13:31:35;1.50;;;0.40;;
74670;SDS011;63196;39.564;2.628;2022-11-20T13:34:03;3.00;;;0.60;;
74670;SDS011;63196;39.564;2.628;2022-11-20T13:36:30;6.40;;;3.10;;
74670;SDS011;63196;39.564;2.628;2022-11-20T13:38:57;7.10;;;3.20;;
74670;SDS011;63196;39.564;2.628;2022-11-20T13:46:38;2.80;;;0.60;;
74670;SDS011;63196;39.564;2.628;2022-11-20T13:49:08;2.00;;;0.60;;
74670;SDS011;63196;39.564;2.628;2022-11-20T13:51:42;1.50;;;0.40;;
74670;SDS011;63196;39.564;2.628;2022-11-20T13:54:32;2.40;;;0.70;;
74670;SDS011;63196;39.564;2.628;2022-11-20T14:02:13;2.80;;;0.80;;
74670;SDS011;63196;39.564;2.628;2022-11-20T14:04:41;6.70;;;1.20;;
74670;SDS011;63196;39.564;2.628;2022-11-20T14:07:07;3.10;;;0.90;;
74670;SDS011;63196;39.564;2.628;2022-11-20T14:09:34;2.20;;;0.80;;
74670;SDS011;63196;39.564;2.628;2022-11-20T14:11:59;2.00;;;0.70;;
74670;SDS011;63196;39.564;2.628;2022-11-20T14:14:28;2.10;;;0.70;;
74670;SDS011;63196;39.564;2.628;2022-11-20T14:19:51;4.00;;;1.00;;
74670;SDS011;63196;39.564;2.628;2022-11-20T14:22:21;2.90;;;1.10;;
74670;SDS011;63196;39.564;2.628;2022-11-20T14:25:32;5.20;;;1.50;;
74670;SDS011;63196;39.564;2.628;2022-11-20T14:29:57;2.60;;;0.70;;
74670;SDS011;63196;39.564;2.628;2022-11-20T14:32:27;3.90;;;2.00;;
74670;SDS011;63196;39.564;2.628;2022-11-20T14:34:54;2.60;;;1.20;;
74670;SDS011;63196;39.564;2.628;2022-11-20T14:37:20;2.10;;;0.70;;
74670;SDS011;63196;39.564;2.628;2022-11-20T14:39:53;1.90;;;0.70;;
74670;SDS011;63196;39.564;2.628;2022-11-20T14:42:25;2.50;;;0.70;;
74670;SDS011;63196;39.564;2.628;2022-11-20T14:44:52;2.80;;;0.80;;
74670;SDS011;63196;39.564;2.628;2022-11-20T14:47:21;2.80;;;0.90;;
74670;SDS011;63196;39.564;2.628;2022-11-20T14:49:48;2.70;;;1.00;;
74670;SDS011;63196;39.564;2.628;2022-11-20T14:52:18;5.90;;;2.50;;
74670;SDS011;63196;39.564;2.628;2022-11-20T14:54:50;3.20;;;1.10;;
74670;SDS011;63196;39.564;2.628;2022-11-20T15:02:52;1.70;;;0.40;;
74670;SDS011;63196;39.564;2.628;2022-11-20T15:05:18;2.80;;;0.70;;
74670;SDS011;63196;39.564;2.628;2022-11-20T15:07:46;2.80;;;0.70;;
74670;SDS011;63196;39.564;2.628;2022-11-20T15:12:53;1.00;;;0.40;;
74670;SDS011;63196;39.564;2.628;2022-11-20T15:18:05;1.50;;;0.40;;
74670;SDS011;63196;39.564;2.628;2022-11-20T15:20:33;1.20;;;0.70;;
74670;SDS011;63196;39.564;2.628;2022-11-20T15:23:00;1.70;;;0.50;;
74670;SDS011;63196;39.564;2.628;2022-11-20T15:25:26;1.70;;;0.50;;
74670;SDS011;63196;39.564;2.628;2022-11-20T15:27:54;2.10;;;0.60;;
74670;SDS011;63196;39.564;2.628;2022-11-20T15:32:46;2.20;;;0.50;;
74670;SDS011;63196;39.564;2.628;2022-11-20T15:35:12;1.70;;;0.40;;
74670;SDS011;63196;39.564;2.628;2022-11-20T15:37:39;2.00;;;0.50;;
74670;SDS011;63196;39.564;2.628;2022-11-20T15:40:05;1.50;;;0.30;;
74670;SDS011;63196;39.564;2.628;2022-11-20T15:42:31;5.10;;;0.80;;
74670;SDS011;63196;39.564;2.628;2022-11-20T15:44:56;1.60;;;0.50;;
74670;SDS011;63196;39.564;2.628;2022-11-20T15:47:23;1.10;;;0.30;;
74670;SDS011;63196;39.564;2.628;2022-11-20T15:49:51;1.70;;;0.50;;
74670;SDS011;63196;39.564;2.628;2022-11-20T15:52:16;1.40;;;0.40;;
74670;SDS011;63196;39.564;2.628;2022-11-20T15:54:42;1.30;;;0.50;;
74670;SDS011;63196;39.564;2.628;2022-11-20T15:57:07;1.50;;;0.60;;
74670;SDS011;63196;39.564;2.628;2022-11-20T15:59:32;2.00;;;0.50;;
74670;SDS011;63196;39.564;2.628;2022-11-20T16:01:58;1.80;;;0.50;;
74670;SDS011;63196;39.564;2.628;2022-11-20T16:04:23;2.10;;;0.50;;
74670;SDS011;63196;39.564;2.628;2022-11-20T16:06:49;1.50;;;0.50;;
74670;SDS011;63196;39.564;2.628;2022-11-20T16:09:14;1.70;;;0.50;;
74670;SDS011;63196;39.564;2.628;2022-11-20T16:11:39;1.40;;;0.50;;
74670;SDS011;63196;39.564;2.628;2022-11-20T16:14:05;2.40;;;0.80;;
74670;SDS011;63196;39.564;2.628;2022-11-20T16:16:49;1.80;;;0.60;;
74670;SDS011;63196;39.564;2.628;2022-11-20T16:19:16;1.40;;;0.60;;
74670;SDS011;63196;39.564;2.628;2022-11-20T16:21:42;3.30;;;1.00;;
74670;SDS011;63196;39.564;2.628;2022-11-20T16:24:09;2.20;;;0.50;;
74670;SDS011;63196;39.564;2.628;2022-11-20T16:26:35;4.50;;;0.90;;
74670;SDS011;63196;39.564;2.628;2022-11-20T16:29:01;1.80;;;0.40;;
74670;SDS011;63196;39.564;2.628;2022-11-20T16:31:27;1.00;;;0.30;;
74670;SDS011;63196;39.564;2.628;2022-11-20T16:33:56;1.40;;;0.40;;
74670;SDS011;63196;39.564;2.628;2022-11-20T16:36:23;1.50;;;0.60;;
74670;SDS011;63196;39.564;2.628;2022-11-20T16:38:53;5.00;;;3.10;;
74670;SDS011;63196;39.564;2.628;2022-11-20T16:41:19;2.80;;;1.10;;
74670;SDS011;63196;39.564;2.628;2022-11-20T16:43:45;4.80;;;1.50;;
74670;SDS011;63196;39.564;2.628;2022-11-20T16:46:12;3.10;;;1.20;;
74670;SDS011;63196;39.564;2.628;2022-11-20T16:48:44;4.30;;;1.80;;
74670;SDS011;63196;39.564;2.628;2022-11-20T16:51:11;3.70;;;1.20;;
74670;SDS011;63196;39.564;2.628;2022-11-20T16:53:37;3.60;;;1.30;;